createdAt,value
2018-10-02T00:02:11.827Z,4.57
2018-10-02T00:04:39.935Z,7.73
2018-10-02T00:07:08.017Z,4.87
2018-10-02T00:09:36.095Z,4.67
2018-10-02T00:12:09.686Z,10.43
2018-10-02T00:14:37.767Z,11.93
2018-10-02T00:17:05.823Z,5.03
2018-10-02T00:19:33.896Z,7.60
2018-10-02T00:22:01.974Z,7.73
2018-10-02T00:24:30.030Z,5.97
2018-10-02T00:26:58.094Z,8.85
2018-10-02T00:29:26.226Z,3.98
2018-10-02T00:31:54.376Z,5.45
2018-10-02T00:34:22.370Z,3.90
2018-10-02T00:36:50.438Z,4.10
2018-10-02T00:39:18.548Z,2.05
2018-10-02T00:41:46.634Z,5.87
2018-10-02T00:44:14.725Z,8.40
2018-10-02T00:46:42.805Z,8.23
2018-10-02T00:49:10.874Z,3.83
2018-10-02T00:51:38.959Z,6.43
2018-10-02T00:54:07.007Z,2.73
2018-10-02T00:56:35.069Z,10.83
2018-10-02T00:59:03.142Z,3.27
2018-10-02T01:01:31.254Z,5.70
2018-10-02T01:03:59.383Z,4.28
2018-10-02T01:06:27.447Z,5.63
2018-10-02T01:08:55.507Z,5.03
2018-10-02T01:11:23.579Z,3.30
2018-10-02T01:13:51.747Z,2.80
2018-10-02T01:16:19.821Z,7.62
2018-10-02T01:18:47.909Z,12.45
2018-10-02T01:21:15.973Z,9.23
2018-10-02T01:23:44.063Z,6.68
2018-10-02T01:26:12.136Z,4.30
2018-10-02T01:28:40.198Z,5.65
2018-10-02T01:31:08.289Z,7.40
2018-10-02T01:33:36.388Z,4.17
2018-10-02T01:36:05.278Z,6.23
2018-10-02T01:38:33.365Z,10.43
2018-10-02T01:41:01.421Z,10.20
2018-10-02T01:43:29.519Z,6.10
2018-10-02T01:45:57.586Z,7.57
2018-10-02T01:48:25.666Z,9.57
2018-10-02T01:50:53.723Z,7.07
2018-10-02T01:53:21.827Z,14.37
2018-10-02T01:55:49.890Z,4.93
2018-10-02T01:58:17.968Z,7.30
2018-10-02T02:00:46.059Z,4.70
2018-10-02T02:03:14.154Z,6.12
2018-10-02T02:05:42.286Z,2.72
2018-10-02T02:08:10.359Z,7.60
2018-10-02T02:10:38.430Z,11.80
2018-10-02T02:13:06.507Z,8.37
2018-10-02T02:15:34.571Z,7.37
2018-10-02T02:18:03.300Z,5.63
2018-10-02T02:20:31.405Z,3.30
2018-10-02T02:22:59.459Z,7.33
2018-10-02T02:25:27.539Z,4.20
2018-10-02T02:27:55.635Z,5.10
2018-10-02T02:30:23.704Z,2.80
2018-10-02T02:32:51.827Z,5.47
2018-10-02T02:35:19.878Z,5.00
2018-10-02T02:37:47.967Z,5.33
2018-10-02T02:40:16.332Z,5.80
2018-10-02T02:42:44.487Z,3.70
2018-10-02T02:45:12.575Z,5.80
2018-10-02T02:47:46.008Z,7.20
2018-10-02T02:50:19.418Z,2.57
2018-10-02T02:52:50.592Z,2.45
2018-10-02T02:55:18.679Z,5.47
2018-10-02T02:57:46.767Z,5.13
2018-10-02T03:00:14.862Z,6.90
2018-10-02T03:02:42.917Z,8.18
2018-10-02T03:05:10.957Z,5.27
2018-10-02T03:07:39.057Z,8.40
2018-10-02T03:10:07.140Z,7.87
2018-10-02T03:12:36.231Z,6.55
2018-10-02T03:15:04.387Z,5.00
2018-10-02T03:17:32.489Z,7.90
2018-10-02T03:20:00.570Z,7.12
2018-10-02T03:22:28.679Z,7.62
2018-10-02T03:24:56.767Z,10.28
2018-10-02T03:27:24.823Z,9.00
2018-10-02T03:29:52.904Z,8.93
2018-10-02T03:32:20.996Z,7.83
2018-10-02T03:34:49.079Z,9.67
2018-10-02T03:37:17.145Z,5.30
2018-10-02T03:39:45.327Z,6.60
2018-10-02T03:42:13.871Z,16.23
2018-10-02T03:44:42.022Z,4.50
2018-10-02T03:47:10.116Z,7.07
2018-10-02T03:49:38.187Z,3.90
2018-10-02T03:52:06.254Z,7.03
2018-10-02T03:54:34.288Z,3.80
2018-10-02T03:57:02.346Z,5.15
2018-10-02T03:59:30.408Z,6.57
2018-10-02T04:01:58.481Z,8.58
2018-10-02T04:04:26.535Z,9.83
2018-10-02T04:06:54.596Z,7.87
2018-10-02T04:09:22.642Z,6.83
2018-10-02T04:11:50.805Z,7.90
2018-10-02T04:14:18.876Z,6.50
2018-10-02T04:16:46.948Z,5.77
2018-10-02T04:19:15.010Z,7.43
2018-10-02T04:21:43.120Z,7.07
2018-10-02T04:24:11.174Z,13.83
2018-10-02T04:26:39.272Z,8.53
2018-10-02T04:29:07.751Z,5.93
2018-10-02T04:31:36.954Z,4.27
2018-10-02T04:34:05.293Z,12.60
2018-10-02T04:36:33.315Z,7.40
2018-10-02T04:39:01.410Z,8.38
2018-10-02T04:41:29.473Z,4.27
2018-10-02T04:43:57.539Z,3.97
2018-10-02T04:46:25.602Z,12.80
2018-10-02T04:48:53.659Z,6.83
2018-10-02T04:51:21.735Z,3.13
2018-10-02T04:53:49.785Z,8.45
2018-10-02T04:56:17.951Z,4.93
2018-10-02T04:58:45.935Z,7.10
2018-10-02T05:01:14.006Z,11.33
2018-10-02T05:03:42.946Z,7.15
2018-10-02T05:06:11.052Z,4.42
2018-10-02T05:08:39.148Z,5.95
2018-10-02T05:11:07.178Z,6.70
2018-10-02T05:13:35.366Z,7.72
2018-10-02T05:16:03.435Z,6.20
2018-10-02T05:18:31.495Z,8.33
2018-10-02T05:20:59.583Z,7.73
2018-10-02T05:23:27.664Z,9.60
2018-10-02T05:25:55.730Z,10.50
2018-10-02T05:28:23.803Z,9.48
2018-10-02T05:30:51.893Z,6.90
2018-10-02T05:33:20.015Z,5.60
2018-10-02T05:35:48.080Z,9.63
2018-10-02T05:38:16.163Z,5.80
2018-10-02T05:40:44.227Z,5.27
2018-10-02T05:43:12.309Z,4.90
2018-10-02T05:45:40.394Z,7.37
2018-10-02T05:48:08.520Z,4.53
2018-10-02T05:50:36.641Z,9.07
2018-10-02T05:53:04.663Z,4.50
2018-10-02T05:55:32.739Z,6.30
2018-10-02T05:58:00.809Z,7.83
2018-10-02T06:00:28.900Z,8.43
2018-10-02T06:02:57.012Z,3.83
2018-10-02T06:05:25.105Z,6.97
2018-10-02T06:07:53.350Z,8.07
2018-10-02T06:10:21.433Z,10.57
2018-10-02T06:12:49.519Z,7.00
2018-10-02T06:15:17.610Z,4.77
2018-10-02T06:17:45.721Z,8.30
2018-10-02T06:20:13.784Z,9.30
2018-10-02T06:22:41.883Z,10.10
2018-10-02T06:25:09.969Z,8.30
2018-10-02T06:27:38.078Z,8.75
2018-10-02T06:30:06.167Z,9.70
2018-10-02T06:32:34.295Z,8.08
2018-10-02T06:35:09.023Z,10.87
2018-10-02T06:37:37.111Z,10.67
2018-10-02T06:40:05.191Z,5.77
2018-10-02T06:42:33.317Z,7.47
2018-10-02T06:45:01.427Z,6.57
2018-10-02T06:47:29.490Z,13.53
2018-10-02T06:49:57.579Z,6.03
2018-10-02T06:52:25.949Z,5.83
2018-10-02T06:54:53.749Z,7.23
2018-10-02T06:57:21.881Z,5.72
2018-10-02T06:59:49.998Z,6.35
2018-10-02T07:02:18.087Z,6.40
2018-10-02T07:04:46.188Z,7.53
2018-10-02T07:07:14.289Z,4.35
2018-10-02T07:09:42.382Z,7.50
2018-10-02T07:12:10.476Z,9.60
2018-10-02T07:14:38.604Z,15.90
2018-10-02T07:17:07.029Z,11.70
2018-10-02T07:19:35.183Z,8.97
2018-10-02T07:22:03.251Z,7.20
2018-10-02T07:24:31.323Z,6.23
2018-10-02T07:26:59.474Z,5.70
2018-10-02T07:29:27.567Z,7.10
2018-10-02T07:31:55.703Z,6.37
2018-10-02T07:34:23.816Z,9.80
2018-10-02T07:36:51.901Z,5.33
2018-10-02T07:39:20.032Z,10.07
2018-10-02T07:41:48.120Z,7.50
2018-10-02T07:44:16.173Z,6.20
2018-10-02T07:46:44.354Z,8.47
2018-10-02T07:49:12.451Z,4.67
2018-10-02T07:51:40.538Z,5.77
2018-10-02T07:54:08.895Z,4.73
2018-10-02T07:56:37.021Z,10.20
2018-10-02T07:59:05.482Z,7.17
2018-10-02T08:01:33.640Z,5.43
2018-10-02T08:04:01.731Z,3.17
2018-10-02T08:06:29.812Z,6.20
2018-10-02T08:08:57.929Z,3.50
2018-10-02T08:11:26.074Z,10.93
2018-10-02T08:13:54.124Z,3.10
2018-10-02T08:16:22.234Z,5.83
2018-10-02T08:18:50.275Z,8.37
2018-10-02T08:21:18.376Z,5.83
2018-10-02T08:23:46.486Z,7.83
2018-10-02T08:26:14.556Z,7.90
2018-10-02T08:28:42.650Z,5.93
2018-10-02T08:31:10.767Z,8.80
2018-10-02T08:33:38.858Z,5.27
2018-10-02T08:36:07.079Z,9.53
2018-10-02T08:38:35.051Z,10.07
2018-10-02T08:41:03.117Z,9.10
2018-10-02T08:43:31.242Z,14.67
2018-10-02T08:45:59.280Z,7.70
2018-10-02T08:48:27.371Z,9.00
2018-10-02T08:50:55.517Z,8.60
2018-10-02T08:53:24.402Z,8.83
2018-10-02T08:55:54.546Z,8.10
2018-10-02T08:58:22.643Z,8.60
2018-10-02T09:00:50.732Z,9.98
2018-10-02T09:03:18.934Z,14.28
2018-10-02T09:05:46.916Z,13.33
2018-10-02T09:08:15.017Z,12.50
2018-10-02T09:10:43.106Z,11.50
2018-10-02T09:14:15.556Z,13.80
2018-10-02T09:16:43.743Z,11.37
2018-10-02T09:19:11.678Z,12.77
2018-10-02T09:21:39.813Z,12.17
2018-10-02T09:24:07.871Z,14.25
2018-10-02T09:26:35.944Z,12.40
2018-10-02T09:29:04.018Z,13.30
2018-10-02T09:31:37.577Z,14.83
2018-10-02T09:34:11.095Z,13.43
2018-10-02T09:36:44.647Z,15.00
2018-10-02T09:39:18.062Z,16.77
2018-10-02T09:41:51.791Z,14.83
2018-10-02T09:44:19.897Z,15.78
2018-10-02T09:46:47.971Z,15.10
2018-10-02T09:49:16.076Z,18.77
2018-10-02T09:51:44.202Z,16.35
2018-10-02T09:54:12.211Z,16.10
2018-10-02T09:56:44.476Z,16.00
2018-10-02T09:59:13.753Z,17.93
2018-10-02T10:01:47.207Z,15.63
2018-10-02T10:04:15.918Z,15.93
2018-10-02T10:06:43.990Z,15.90
2018-10-02T10:09:12.612Z,14.90
2018-10-02T10:11:41.428Z,16.30
2018-10-02T10:14:09.790Z,15.67
2018-10-02T10:16:38.009Z,17.83
2018-10-02T10:19:06.211Z,17.20
2018-10-02T10:21:34.316Z,16.55
2018-10-02T10:24:02.468Z,16.33
2018-10-02T10:26:30.602Z,16.00
2018-10-02T10:28:58.741Z,17.40
2018-10-02T10:31:26.859Z,15.63
2018-10-02T10:33:54.940Z,18.67
2018-10-02T10:36:23.031Z,17.37
2018-10-02T10:38:51.120Z,17.53
2018-10-02T10:41:19.184Z,18.37
2018-10-02T10:43:47.263Z,17.55
2018-10-02T10:46:15.332Z,18.23
2018-10-02T10:48:43.410Z,18.67
2018-10-02T10:51:11.490Z,17.00
2018-10-02T10:53:39.616Z,16.77
2018-10-02T10:56:07.746Z,15.37
2018-10-02T10:58:35.830Z,17.80
2018-10-02T11:01:03.902Z,14.87
2018-10-02T11:03:32.016Z,14.27
2018-10-02T11:06:00.158Z,15.30
2018-10-02T11:08:28.226Z,15.80
2018-10-02T11:10:56.347Z,19.03
2018-10-02T11:13:24.423Z,15.57
2018-10-02T11:15:52.533Z,16.75
2018-10-02T11:18:20.626Z,16.63
2018-10-02T11:20:48.707Z,17.13
2018-10-02T11:23:16.771Z,19.00
2018-10-02T11:25:44.952Z,18.40
2018-10-02T11:28:14.689Z,20.02
2018-10-02T11:30:42.799Z,17.60
2018-10-02T11:33:10.918Z,18.80
2018-10-02T11:35:39.025Z,19.00
2018-10-02T11:38:07.141Z,18.30
2018-10-02T11:40:35.274Z,21.05
2018-10-02T11:43:03.399Z,21.53
2018-10-02T11:45:31.470Z,22.20
2018-10-02T11:47:59.556Z,22.33
2018-10-02T11:50:27.711Z,22.77
2018-10-02T11:52:55.812Z,22.98
2018-10-02T11:55:23.986Z,20.25
2018-10-02T11:57:52.045Z,20.15
2018-10-02T12:00:20.206Z,21.50
2018-10-02T12:02:48.264Z,17.70
2018-10-02T12:05:16.388Z,18.67
2018-10-02T12:07:44.509Z,19.65
2018-10-02T12:10:12.614Z,18.52
2018-10-02T12:12:40.743Z,18.40
2018-10-02T12:15:08.856Z,17.40
2018-10-02T12:17:36.961Z,19.70
2018-10-02T12:20:05.272Z,20.70
2018-10-02T12:22:33.383Z,20.87
2018-10-02T12:25:01.484Z,20.77
2018-10-02T12:27:29.614Z,21.25
2018-10-02T12:29:57.730Z,21.35
2018-10-02T12:32:25.791Z,24.00
2018-10-02T12:34:53.893Z,21.87
2018-10-02T12:37:22.108Z,22.60
2018-10-02T12:39:50.232Z,21.03
2018-10-02T12:42:18.323Z,22.67
2018-10-02T12:44:46.437Z,21.07
2018-10-02T12:47:14.561Z,23.47
2018-10-02T12:49:42.696Z,24.37
2018-10-02T12:52:10.825Z,23.50
2018-10-02T12:54:38.932Z,21.57
2018-10-02T12:57:07.065Z,20.53
2018-10-02T12:59:35.152Z,19.83
2018-10-02T13:02:03.231Z,19.80
2018-10-02T13:04:31.355Z,18.07
2018-10-02T13:06:59.445Z,18.23
2018-10-02T13:09:27.555Z,16.87
2018-10-02T13:11:55.656Z,18.60
2018-10-02T13:14:23.747Z,18.40
2018-10-02T13:16:51.835Z,18.90
2018-10-02T13:19:19.947Z,16.80
2018-10-02T13:21:48.054Z,19.30
2018-10-02T13:24:16.144Z,19.63
2018-10-02T13:26:44.247Z,20.37
2018-10-02T13:29:12.365Z,19.02
2018-10-02T13:31:40.447Z,21.12
2018-10-02T13:34:08.584Z,20.02
2018-10-02T13:36:36.684Z,21.00
2018-10-02T13:39:07.036Z,21.68
2018-10-02T13:41:35.140Z,21.27
2018-10-02T13:44:03.227Z,21.60
2018-10-02T13:46:31.325Z,21.80
2018-10-02T13:48:59.460Z,20.12
2018-10-02T13:51:27.542Z,20.05
2018-10-02T13:53:55.648Z,23.60
2018-10-02T13:56:23.764Z,21.82
2018-10-02T13:58:51.866Z,21.75
2018-10-02T14:01:20.051Z,22.95
2018-10-02T14:03:48.082Z,22.13
2018-10-02T14:06:16.208Z,22.00
2018-10-02T14:08:44.287Z,27.50
2018-10-02T14:11:12.402Z,24.72
2018-10-02T14:13:41.122Z,28.60
2018-10-02T14:16:09.268Z,24.90
2018-10-02T14:18:37.348Z,29.77
2018-10-02T14:21:05.436Z,25.83
2018-10-02T14:23:33.527Z,24.30
2018-10-02T14:26:01.706Z,24.37
2018-10-02T14:28:29.756Z,22.50
2018-10-02T14:30:57.879Z,25.57
2018-10-02T14:33:25.982Z,25.63
2018-10-02T14:35:54.083Z,20.77
2018-10-02T14:38:22.156Z,20.63
2018-10-02T14:40:50.234Z,20.90
2018-10-02T14:43:18.457Z,20.33
2018-10-02T14:45:46.479Z,21.80
2018-10-02T14:48:14.570Z,21.47
2018-10-02T14:50:42.679Z,18.57
2018-10-02T14:53:10.767Z,18.90
2018-10-02T14:55:39.079Z,20.57
2018-10-02T14:58:07.174Z,23.13
2018-10-02T15:00:35.735Z,22.23
2018-10-02T15:03:03.847Z,23.30
2018-10-02T15:05:31.926Z,20.37
2018-10-02T15:08:00.054Z,14.60
2018-10-02T15:10:28.179Z,12.93
2018-10-02T15:12:56.275Z,13.17
2018-10-02T15:15:24.375Z,14.80
2018-10-02T15:17:52.509Z,17.73
2018-10-02T15:20:20.611Z,14.43
2018-10-02T15:22:48.747Z,16.70
2018-10-02T15:25:16.859Z,16.33
2018-10-02T15:27:44.944Z,19.10
2018-10-02T15:30:13.044Z,18.23
2018-10-02T15:32:41.175Z,13.53
2018-10-02T15:35:09.249Z,13.70
2018-10-02T15:37:37.429Z,14.33
2018-10-02T15:40:05.403Z,15.07
2018-10-02T15:42:33.500Z,15.07
2018-10-02T15:45:01.612Z,16.17
2018-10-02T15:47:29.699Z,20.10
2018-10-02T15:49:57.832Z,17.13
2018-10-02T15:52:25.938Z,14.33
2018-10-02T15:54:54.015Z,16.80
2018-10-02T15:57:22.115Z,18.50
2018-10-02T15:59:50.173Z,18.70
2018-10-02T16:02:18.250Z,22.13
2018-10-02T16:04:46.352Z,14.43
2018-10-02T16:07:14.470Z,16.93
2018-10-02T16:09:42.588Z,23.03
2018-10-02T16:12:10.697Z,23.25
2018-10-02T16:14:38.815Z,25.87
2018-10-02T16:17:07.092Z,17.20
2018-10-02T16:19:35.171Z,18.93
2018-10-02T16:22:03.304Z,17.85
2018-10-02T16:24:31.367Z,15.47
2018-10-02T16:26:59.538Z,19.02
2018-10-02T16:29:27.647Z,15.20
2018-10-02T16:31:55.783Z,22.80
2018-10-02T16:34:23.920Z,21.73
2018-10-02T16:36:52.051Z,19.53
2018-10-02T16:39:20.179Z,17.33
2018-10-02T16:41:48.315Z,25.60
2018-10-02T16:44:16.380Z,18.10
2018-10-02T16:46:44.484Z,14.77
2018-10-02T16:49:12.547Z,16.27
2018-10-02T16:51:40.618Z,14.65
2018-10-02T16:54:08.718Z,15.73
2018-10-02T16:56:36.831Z,15.23
2018-10-02T16:59:05.043Z,14.43
2018-10-02T17:01:33.368Z,15.23
2018-10-02T17:04:01.483Z,16.10
2018-10-02T17:06:29.912Z,15.98
2018-10-02T17:08:57.974Z,18.90
2018-10-02T17:11:26.059Z,20.40
2018-10-02T17:13:54.146Z,21.40
2018-10-02T17:16:22.305Z,11.73
2018-10-02T17:18:50.404Z,21.37
2018-10-02T17:21:19.013Z,15.58
2018-10-02T17:23:47.135Z,18.44
2018-10-02T17:26:15.245Z,14.70
2018-10-02T17:28:43.423Z,20.57
2018-10-02T17:31:11.427Z,12.98
2018-10-02T17:38:36.842Z,12.63
2018-10-02T17:41:05.172Z,13.23
2018-10-02T17:43:35.335Z,12.97
2018-10-02T17:46:03.447Z,21.67
2018-10-02T17:48:33.467Z,20.80
2018-10-02T17:51:01.786Z,13.57
2018-10-02T17:53:35.573Z,22.05
2018-10-02T17:56:07.248Z,15.10
2018-10-02T17:58:39.499Z,9.30
2018-10-02T18:01:08.353Z,21.52
2018-10-02T18:03:38.686Z,11.00
2018-10-02T18:06:06.898Z,20.40
2018-10-02T18:08:35.084Z,15.20
2018-10-02T18:11:03.297Z,11.85
2018-10-02T18:13:31.394Z,11.30
2018-10-02T18:15:59.553Z,11.50
2018-10-02T18:18:27.663Z,17.77
2018-10-02T18:20:55.790Z,11.23
2018-10-02T18:23:23.948Z,13.67
2018-10-02T18:25:52.171Z,15.27
2018-10-02T18:28:20.326Z,10.10
2018-10-02T18:30:48.517Z,19.20
2018-10-02T18:33:16.846Z,17.53
2018-10-02T18:35:44.976Z,15.40
2018-10-02T18:38:13.152Z,13.97
2018-10-02T18:40:41.274Z,18.37
2018-10-02T18:43:09.397Z,15.23
2018-10-02T18:45:37.591Z,14.77
2018-10-02T18:48:05.675Z,20.83
2018-10-02T18:50:33.793Z,17.93
2018-10-02T18:53:01.894Z,11.03
2018-10-02T18:55:29.998Z,9.07
2018-10-02T18:57:58.052Z,14.97
2018-10-02T19:00:26.166Z,16.00
2018-10-02T19:02:54.404Z,9.68
2018-10-02T19:05:22.489Z,12.97
2018-10-02T19:07:50.563Z,10.43
2018-10-02T19:10:18.687Z,12.58
2018-10-02T19:12:46.741Z,27.10
2018-10-02T19:15:14.847Z,10.18
2018-10-02T19:17:42.985Z,15.00
2018-10-02T19:20:16.475Z,18.77
2018-10-02T19:22:44.559Z,10.20
2018-10-02T19:25:18.083Z,15.32
2018-10-02T19:27:46.147Z,11.17
2018-10-02T19:30:19.569Z,13.87
2018-10-02T19:32:47.633Z,6.63
2018-10-02T19:35:15.727Z,11.67
2018-10-02T19:37:49.177Z,14.53
2018-10-02T19:40:17.251Z,13.30
2018-10-02T19:42:45.336Z,14.50
2018-10-02T19:45:18.917Z,9.50
2018-10-02T19:47:46.995Z,17.47
2018-10-02T19:50:15.078Z,12.13
2018-10-02T19:52:43.147Z,17.70
2018-10-02T19:55:11.271Z,11.90
2018-10-02T19:57:39.342Z,12.43
2018-10-02T20:00:07.772Z,11.03
2018-10-02T20:02:35.847Z,11.73
2018-10-02T20:05:03.929Z,6.30
2018-10-02T20:07:32.051Z,12.23
2018-10-02T20:10:00.084Z,12.10
2018-10-02T20:12:28.142Z,15.00
2018-10-02T20:14:56.233Z,15.23
2018-10-02T20:17:24.321Z,18.53
2018-10-02T20:19:52.436Z,13.73
2018-10-02T20:22:20.530Z,14.68
2018-10-02T20:24:48.619Z,19.20
2018-10-02T20:27:16.772Z,13.40
2018-10-02T20:29:44.833Z,13.50
2018-10-02T20:32:12.939Z,14.63
2018-10-02T20:34:41.059Z,12.47
2018-10-02T20:37:09.182Z,12.90
2018-10-02T20:39:37.279Z,18.53
2018-10-02T20:42:05.400Z,15.65
2018-10-02T20:44:33.511Z,12.90
2018-10-02T20:47:01.678Z,17.25
2018-10-02T20:49:29.786Z,17.02
2018-10-02T20:51:57.863Z,16.50
2018-10-02T20:54:25.970Z,13.40
2018-10-02T20:56:54.039Z,16.90
2018-10-02T20:59:22.192Z,16.15
2018-10-02T21:01:50.295Z,22.60
2018-10-02T21:04:18.415Z,15.63
2018-10-02T21:06:46.496Z,14.63
2018-10-02T21:09:14.583Z,19.65
2018-10-02T21:11:42.688Z,19.52
2018-10-02T21:14:10.818Z,18.82
2018-10-02T21:16:38.898Z,11.70
2018-10-02T21:19:07.020Z,18.30
2018-10-02T21:21:35.135Z,12.60
2018-10-02T21:24:03.466Z,17.07
2018-10-02T21:26:31.864Z,14.47
2018-10-02T21:29:00.609Z,10.53
2018-10-02T21:31:28.699Z,11.43
2018-10-02T21:33:56.831Z,12.07
2018-10-02T21:36:24.971Z,17.20
2018-10-02T21:38:53.071Z,10.50
2018-10-02T21:41:21.215Z,9.17
2018-10-02T21:43:49.321Z,12.40
2018-10-02T21:46:17.427Z,7.30
2018-10-02T21:48:45.621Z,11.23
2018-10-02T21:51:13.723Z,10.30
2018-10-02T21:53:42.732Z,12.13
2018-10-02T21:56:10.826Z,8.87
2018-10-02T21:58:38.990Z,14.30
2018-10-02T22:01:07.092Z,12.97
2018-10-02T22:03:37.333Z,14.80
2018-10-02T22:06:05.411Z,15.87
2018-10-02T22:08:33.567Z,10.17
2018-10-02T22:11:01.652Z,6.77
2018-10-02T22:13:29.758Z,10.30
2018-10-02T22:15:58.150Z,13.73
2018-10-02T22:18:26.243Z,11.28
2018-10-02T22:20:54.347Z,15.58
2018-10-02T22:23:22.462Z,10.18
2018-10-02T22:25:50.572Z,9.53
2018-10-02T22:28:18.676Z,15.18
2018-10-02T22:30:46.759Z,12.98
2018-10-02T22:33:14.943Z,8.50
2018-10-02T22:35:42.967Z,23.00
2018-10-02T22:38:11.088Z,11.57
2018-10-02T22:40:39.206Z,9.20
2018-10-02T22:43:07.287Z,20.52
2018-10-02T22:45:35.373Z,8.10
2018-10-02T22:48:03.525Z,18.60
2018-10-02T22:50:31.780Z,13.72
2018-10-02T22:52:59.922Z,7.62
2018-10-02T22:55:28.023Z,8.57
2018-10-02T22:57:56.119Z,9.13
2018-10-02T23:00:24.420Z,16.97
2018-10-02T23:02:52.524Z,13.48
2018-10-02T23:05:20.647Z,15.47
2018-10-02T23:07:48.767Z,10.50
2018-10-02T23:10:16.908Z,11.95
2018-10-02T23:12:44.991Z,12.95
2018-10-02T23:15:13.120Z,12.13
2018-10-02T23:17:41.236Z,13.40
2018-10-02T23:20:09.383Z,20.12
2018-10-02T23:22:37.467Z,6.50
2018-10-02T23:25:05.580Z,10.67
2018-10-02T23:27:33.637Z,13.53
2018-10-02T23:30:01.770Z,12.33
2018-10-02T23:32:29.899Z,15.23
2018-10-02T23:34:58.000Z,13.80
2018-10-02T23:37:26.100Z,15.00
2018-10-02T23:39:54.215Z,11.38
2018-10-02T23:42:22.351Z,9.48
2018-10-02T23:44:50.457Z,7.80
2018-10-02T23:47:18.543Z,9.63
2018-10-02T23:49:46.648Z,12.85
2018-10-02T23:52:14.768Z,22.25
2018-10-02T23:54:42.859Z,22.27
2018-10-02T23:57:10.986Z,24.95
2018-10-02T23:59:39.031Z,18.27
